Time;durP1;ratioP1;P1;durP2;ratioP2;P2;SDS_P1;SDS_P2;PMS_P1;PMS_P2;Temp;Humidity;BMP_temperature;BMP_pressure;BME280_temperature;BME280_humidity;BME280_pressure;Samples;Min_cycle;Max_cycle;Signal;HPM_P1;HPM_P2
2022/05/25 00:01:05;;;;;;;;;2.00;2.00;;;;;15.82;46.11;100952.91;5079865;28;45397;-57
2022/05/25 00:03:32;;;;;;;;;3.00;2.25;;;;;15.81;45.78;100952.03;5070598;27;45342;-57
2022/05/25 00:05:59;;;;;;;;;2.75;1.50;;;;;15.81;45.92;100953.78;5059415;28;45419;-57
2022/05/25 00:08:25;;;;;;;;;2.25;2.00;;;;;15.81;46.07;100961.75;5059518;28;45312;-58
2022/05/25 00:10:50;;;;;;;;;2.00;2.00;;;;;15.77;46.14;100951.25;5074947;28;45197;-57
2022/05/25 00:13:16;;;;;;;;;1.25;1.25;;;;;15.77;46.03;100947.72;5079733;27;45477;-57
2022/05/25 00:15:41;;;;;;;;;3.50;3.50;;;;;15.77;46.40;100953.03;5079599;27;45398;-56
2022/05/25 00:18:07;;;;;;;;;1.00;1.00;;;;;15.76;46.22;100956.63;5079884;27;45178;-57
2022/05/25 00:20:33;;;;;;;;;3.00;2.00;;;;;15.73;46.49;100951.41;5079881;27;45255;-57
2022/05/25 00:22:59;;;;;;;;;3.75;2.00;;;;;15.72;46.06;100947.00;5079891;27;45340;-57
2022/05/25 00:25:33;;;;;;;;;1.00;1.00;;;;;15.71;46.17;100955.88;5077404;28;45749;-58
2022/05/25 00:27:59;;;;;;;;;2.75;2.00;;;;;15.70;45.97;100956.81;5079048;27;46139;-57
2022/05/25 00:30:25;;;;;;;;;1.50;1.50;;;;;15.68;46.50;100954.19;5079479;27;45259;-57
2022/05/25 00:32:51;;;;;;;;;0.75;0.75;;;;;15.65;46.20;100953.44;5081890;28;45469;-57
2022/05/25 00:35:19;;;;;;;;;3.00;2.00;;;;;15.65;46.73;100956.09;5082967;27;45342;-57
2022/05/25 00:37:44;;;;;;;;;1.00;1.00;;;;;15.62;46.51;100959.69;5082837;27;45262;-57
2022/05/25 00:40:16;;;;;;;;;1.75;1.75;;;;;15.58;46.25;100948.34;5081556;28;45204;-57
2022/05/25 00:42:42;;;;;;;;;1.00;1.00;;;;;15.56;46.65;100959.91;5083023;27;45303;-57
2022/05/25 00:45:08;;;;;;;;;2.00;1.00;;;;;15.46;46.75;100942.53;5082778;28;45334;-57
2022/05/25 00:47:37;;;;;;;;;2.75;1.00;;;;;15.50;46.63;100962.75;5082656;27;45393;-57
2022/05/25 00:50:03;;;;;;;;;2.00;2.00;;;;;15.44;47.07;100959.38;5082717;27;45425;-57
2022/05/25 00:52:29;;;;;;;;;1.00;1.00;;;;;15.43;46.93;100967.34;5082884;28;45324;-57
2022/05/25 00:55:00;;;;;;;;;4.00;2.00;;;;;15.40;46.84;100967.44;5082175;27;45505;-57
2022/05/25 00:57:37;;;;;;;;;2.00;1.75;;;;;15.33;47.15;100958.81;5082717;27;45435;-57
2022/05/25 01:00:05;;;;;;;;;2.00;2.00;;;;;15.33;47.52;100968.53;5082671;27;45310;-57
2022/05/25 01:02:33;;;;;;;;;2.75;1.75;;;;;15.28;46.99;100961.63;5081556;28;45342;-57
2022/05/25 01:04:58;;;;;;;;;2.25;1.75;;;;;15.27;47.44;100966.97;5069281;28;45402;-57
2022/05/25 01:07:44;;;;;;;;;1.50;1.50;;;;;15.25;47.44;100969.63;5082365;28;46176;-57
2022/05/25 01:10:33;;;;;;;;;1.00;1.00;;;;;15.23;47.30;100973.25;5082778;27;45280;-57
2022/05/25 01:13:24;;;;;;;;;1.75;1.75;;;;;15.21;47.06;100983.88;5082373;27;45473;-57
2022/05/25 01:15:49;;;;;;;;;1.25;1.25;;;;;15.19;47.34;100977.75;5077494;28;45238;-57
2022/05/25 01:18:34;;;;;;;;;2.25;2.25;;;;;15.17;47.43;100982.25;5072764;28;46146;-57
2022/05/25 01:21:16;;;;;;;;;2.00;2.00;;;;;15.17;47.63;100987.53;5081130;28;45252;-57
2022/05/25 01:23:51;;;;;;;;;2.75;1.50;;;;;15.16;47.10;100990.25;5082309;27;45409;-57
2022/05/25 01:26:25;;;;;;;;;2.00;2.00;;;;;15.14;47.60;100992.91;5081616;27;45504;-57
2022/05/25 01:29:09;;;;;;;;;0.75;0.75;;;;;15.13;47.13;100988.53;5081837;27;45399;-57
2022/05/25 01:32:11;;;;;;;;;2.00;2.00;;;;;15.12;47.67;100989.47;5082085;27;45340;-57
2022/05/25 01:34:47;;;;;;;;;1.25;1.25;;;;;15.10;47.34;100994.78;5075433;28;45261;-57
2022/05/25 01:37:24;;;;;;;;;1.75;1.75;;;;;15.08;47.79;100993.97;5081940;27;45165;-57
2022/05/25 01:40:13;;;;;;;;;0.75;0.75;;;;;15.08;47.90;100990.44;5081908;27;47137;-57
2022/05/25 01:42:47;;;;;;;;;4.50;1.75;;;;;15.06;47.59;100994.94;5061372;28;45482;-56
2022/05/25 01:45:15;;;;;;;;;1.00;1.00;;;;;15.04;47.90;100999.38;5082003;27;45422;-57
2022/05/25 01:47:45;;;;;;;;;1.75;1.75;;;;;15.04;47.56;101002.91;5081685;28;45523;-57
2022/05/25 01:50:16;;;;;;;;;1.00;1.00;;;;;15.05;48.05;101003.78;5081423;28;45366;-57
2022/05/25 01:52:45;;;;;;;;;3.50;2.00;;;;;15.03;48.00;101001.19;5080603;28;46274;-57
2022/05/25 01:55:28;;;;;;;;;1.25;1.00;;;;;15.04;47.86;101007.31;5077428;28;45365;-57
2022/05/25 01:57:59;;;;;;;;;3.00;2.00;;;;;15.04;48.08;101007.31;5078053;28;45496;-57
2022/05/25 02:00:37;;;;;;;;;2.50;2.50;;;;;15.02;47.83;101012.66;5081789;28;45363;-57
2022/05/25 02:06:02;;;;;;;;;2.50;2.50;;;;;14.99;48.29;101004.81;5061315;28;45414;-57
2022/05/25 02:08:40;;;;;;;;;1.25;1.25;;;;;14.97;47.82;101017.22;5061393;28;45245;-57
2022/05/25 02:11:37;;;;;;;;;1.75;0.50;;;;;14.95;48.14;101019.03;5061047;28;45298;-57
2022/05/25 02:14:28;;;;;;;;;1.75;1.75;;;;;14.93;48.28;101023.50;5052337;28;45242;-57
2022/05/25 02:17:17;;;;;;;;;2.00;2.00;;;;;14.90;48.43;101019.16;5076874;28;45254;-57
2022/05/25 02:19:58;;;;;;;;;2.75;2.75;;;;;14.88;48.27;101018.34;5071467;28;45255;-57
2022/05/25 02:22:59;;;;;;;;;2.00;2.00;;;;;14.87;48.40;101015.75;5081177;27;45242;-57
2022/05/25 02:25:30;;;;;;;;;2.00;2.00;;;;;14.85;48.83;101020.22;5071445;28;45333;-57
2022/05/25 02:28:31;;;;;;;;;1.00;1.00;;;;;14.84;48.68;101016.72;5081329;27;45243;-57
2022/05/25 02:30:59;;;;;;;;;2.75;2.00;;;;;14.82;48.35;101030.84;5067321;28;45260;-57
2022/05/25 02:33:32;;;;;;;;;1.50;1.50;;;;;14.78;48.35;101033.59;5079831;28;45277;-57
2022/05/25 02:35:59;;;;;;;;;1.50;1.25;;;;;14.77;48.65;101031.88;5081207;27;45335;-57
2022/05/25 02:38:25;;;;;;;;;4.25;4.00;;;;;14.76;48.69;101027.47;5081085;27;45295;-57
2022/05/25 02:40:50;;;;;;;;;2.75;2.75;;;;;14.75;48.56;101032.81;5081287;27;45473;-57
2022/05/25 02:43:16;;;;;;;;;1.50;1.50;;;;;14.72;48.36;101025.84;5080684;27;45235;-57
2022/05/25 02:45:42;;;;;;;;;2.50;2.50;;;;;14.74;48.85;101031.97;5080867;28;45298;-57
2022/05/25 02:48:08;;;;;;;;;2.50;2.25;;;;;14.71;48.55;101034.66;5081042;28;45250;-57
2022/05/25 02:50:35;;;;;;;;;4.25;3.75;;;;;14.72;48.94;101038.19;5080806;27;45628;-57
2022/05/25 02:53:00;;;;;;;;;2.50;2.50;;;;;14.67;48.75;101030.38;5080672;28;45547;-57
2022/05/25 02:55:26;;;;;;;;;1.75;1.75;;;;;14.67;48.48;101040.97;5079732;28;45283;-57
2022/05/25 02:57:51;;;;;;;;;4.75;3.25;;;;;14.56;49.13;101032.41;5080718;27;45508;-57
2022/05/25 03:00:17;;;;;;;;;2.00;2.00;;;;;14.60;48.94;101044.63;5080956;27;45259;-57
2022/05/25 03:02:42;;;;;;;;;2.75;1.00;;;;;14.58;48.72;101041.19;5077516;27;45655;-56
2022/05/25 03:05:09;;;;;;;;;2.50;2.50;;;;;14.56;49.32;101043.84;5060554;28;45293;-56
2022/05/25 03:07:35;;;;;;;;;3.75;3.75;;;;;14.56;48.68;101048.28;5060421;28;45232;-57
2022/05/25 03:10:01;;;;;;;;;3.50;2.25;;;;;14.55;49.25;101049.19;5058788;28;45534;-57
2022/05/25 03:12:26;;;;;;;;;3.25;2.00;;;;;14.55;48.91;101059.75;5060088;28;46595;-57
2022/05/25 03:14:52;;;;;;;;;2.50;2.50;;;;;14.55;49.05;101059.75;5060551;28;45224;-57
2022/05/25 03:17:17;;;;;;;;;1.00;1.00;;;;;14.54;49.01;101061.53;5075500;28;45507;-57
2022/05/25 03:19:50;;;;;;;;;2.50;2.50;;;;;14.55;49.22;101062.41;5080533;27;45586;-57
2022/05/25 03:22:16;;;;;;;;;33.50;28.50;;;;;14.51;49.02;101072.19;5080291;27;46359;-57
2022/05/25 03:24:41;;;;;;;;;7.25;5.50;;;;;14.54;49.05;101080.06;5080555;28;45388;-57
2022/05/25 03:27:07;;;;;;;;;3.75;3.00;;;;;14.51;49.33;101077.47;5080405;27;45314;-57
2022/05/25 03:29:32;;;;;;;;;2.75;2.75;;;;;14.53;48.84;101080.97;5080304;27;45208;-57
2022/05/25 03:31:58;;;;;;;;;2.25;2.25;;;;;14.50;49.18;101080.16;5079248;27;45382;-57
2022/05/25 03:34:24;;;;;;;;;2.00;1.50;;;;;14.50;49.58;101085.44;5075724;28;45813;-57
2022/05/25 03:36:49;;;;;;;;;3.00;3.00;;;;;14.46;48.98;101090.84;5076882;28;45649;-57
2022/05/25 03:39:14;;;;;;;;;2.00;2.00;;;;;14.47;49.35;101092.53;5075771;28;45412;-57
2022/05/25 03:41:40;;;;;;;;;3.00;2.00;;;;;14.46;49.44;101095.22;5076764;28;45379;-57
2022/05/25 03:44:06;;;;;;;;;1.75;1.75;;;;;14.45;49.27;101093.50;5080128;27;45564;-57
2022/05/25 03:46:32;;;;;;;;;1.75;1.75;;;;;14.45;49.12;101093.50;5080137;27;45393;-57
2022/05/25 03:48:58;;;;;;;;;3.00;3.00;;;;;14.44;49.16;101099.72;5080188;28;45326;-57
2022/05/25 03:51:23;;;;;;;;;3.00;2.00;;;;;14.41;49.40;101103.25;5079826;28;46066;-57
2022/05/25 03:53:49;;;;;;;;;7.00;5.00;;;;;14.41;49.54;101110.34;5080268;27;45227;-58
2022/05/25 03:56:16;;;;;;;;;3.00;3.00;;;;;14.40;49.22;101121.81;5079291;27;45301;-57
2022/05/25 03:58:43;;;;;;;;;4.00;2.50;;;;;14.37;49.58;101114.84;5079738;27;45304;-58
2022/05/25 04:01:08;;;;;;;;;3.25;3.25;;;;;14.37;49.33;101127.19;5079676;27;46207;-58
2022/05/25 04:03:33;;;;;;;;;4.25;2.25;;;;;14.36;49.52;101134.22;5069779;28;45339;-57
2022/05/25 04:05:59;;;;;;;;;4.75;4.75;;;;;14.31;49.72;101133.47;5060561;28;45426;-58
2022/05/25 04:08:24;;;;;;;;;2.75;1.50;;;;;14.27;49.72;101131.81;5063404;28;45302;-58
2022/05/25 04:10:50;;;;;;;;;2.50;2.50;;;;;14.24;49.83;101131.91;5062823;28;45380;-58
2022/05/25 04:13:16;;;;;;;;;4.00;4.00;;;;;14.20;49.45;101136.38;5063068;28;45429;-57
2022/05/25 04:15:41;;;;;;;;;4.25;2.25;;;;;14.17;49.66;101139.09;5062938;28;45378;-57
2022/05/25 04:18:07;;;;;;;;;1.50;1.50;;;;;14.11;49.97;101124.25;5063232;28;45319;-57
2022/05/25 04:20:32;;;;;;;;;2.50;2.50;;;;;14.12;50.02;101133.94;5062945;28;45413;-58
2022/05/25 04:22:58;;;;;;;;;3.75;3.75;;;;;14.10;49.72;101135.72;5063150;28;46104;-58
2022/05/25 04:25:24;;;;;;;;;2.00;2.00;;;;;14.09;49.88;101133.13;5062950;28;45318;-57
2022/05/25 04:27:52;;;;;;;;;3.00;3.00;;;;;14.08;49.89;101139.31;5062782;28;45189;-57
2022/05/25 04:30:20;;;;;;;;;3.00;2.50;;;;;14.09;50.08;101133.97;5062655;28;47112;-57
2022/05/25 04:32:46;;;;;;;;;2.00;1.50;;;;;14.09;49.54;101141.91;5062753;28;45423;-58
2022/05/25 04:35:13;;;;;;;;;3.50;3.50;;;;;14.10;49.75;101141.00;5062923;28;45311;-57
2022/05/25 04:37:52;;;;;;;;;4.75;4.25;;;;;14.11;50.01;101142.75;5062824;28;45505;-57
2022/05/25 04:40:47;;;;;;;;;4.25;4.25;;;;;14.12;50.00;101146.25;5062371;28;46258;-57
2022/05/25 04:43:15;;;;;;;;;3.75;3.75;;;;;14.11;49.77;101149.78;5052077;28;45504;-57
2022/05/25 04:45:43;;;;;;;;;2.75;2.75;;;;;14.13;50.11;101155.94;5082924;27;45401;-57
2022/05/25 04:48:09;;;;;;;;;6.25;5.25;;;;;14.12;50.12;101163.00;5082636;27;45547;-57
2022/05/25 04:50:36;;;;;;;;;10.75;7.25;;;;;14.12;50.20;101156.81;5083039;27;45270;-58
2022/05/25 04:53:03;;;;;;;;;5.25;4.25;;;;;14.15;49.85;101164.69;5082720;27;45173;-57
2022/05/25 04:58:21;;;;;;;;;4.75;4.75;;;;;14.16;50.17;101162.91;5082326;28;45358;-57
2022/05/25 05:00:46;;;;;;;;;4.25;4.00;;;;;14.18;49.95;101169.91;5077879;28;47121;-57
2022/05/25 05:03:12;;;;;;;;;5.50;4.25;;;;;14.18;50.12;101169.91;5075504;27;45416;-57
2022/05/25 05:05:37;;;;;;;;;3.75;2.75;;;;;14.19;50.14;101173.41;5062388;28;45841;-58
2022/05/25 05:08:03;;;;;;;;;7.25;5.75;;;;;14.21;50.11;101176.91;5062531;28;45441;-57
2022/05/25 05:10:28;;;;;;;;;8.50;6.25;;;;;14.20;50.26;101178.69;5062214;28;46886;-57
2022/05/25 05:12:53;;;;;;;;;4.25;4.25;;;;;14.22;50.59;101178.63;5068497;28;45464;-57
2022/05/25 05:15:19;;;;;;;;;5.75;5.25;;;;;14.20;50.46;101181.31;5081307;28;45422;-57
2022/05/25 05:17:44;;;;;;;;;6.50;4.50;;;;;14.22;50.35;101186.56;5081217;27;45603;-57
2022/05/25 05:20:10;;;;;;;;;3.50;3.50;;;;;14.20;50.19;101181.31;5082267;28;45321;-57
2022/05/25 05:22:36;;;;;;;;;5.25;5.25;;;;;14.21;50.50;101190.97;5082255;27;45398;-57
2022/05/25 05:25:02;;;;;;;;;5.50;5.50;;;;;14.22;50.25;101184.78;5082400;28;45489;-57
2022/05/25 05:27:27;;;;;;;;;6.00;6.00;;;;;14.27;49.94;101187.34;5077077;27;45499;-56
2022/05/25 05:29:53;;;;;;;;;5.25;5.25;;;;;14.28;50.21;101189.06;5074970;28;45985;-58
2022/05/25 05:32:18;;;;;;;;;7.00;4.00;;;;;14.32;50.36;101205.75;5082144;27;45309;-58
2022/05/25 05:34:43;;;;;;;;;6.25;6.00;;;;;14.30;50.44;101196.06;5081070;28;45247;-57
2022/05/25 05:37:19;;;;;;;;;2.75;2.50;;;;;14.36;50.38;101208.25;5082266;28;45583;-57
2022/05/25 05:39:50;;;;;;;;;5.00;5.00;;;;;14.38;50.47;101214.41;5081830;27;45243;-58
2022/05/25 05:42:18;;;;;;;;;6.00;4.75;;;;;14.38;50.49;101202.97;5081925;27;45288;-58
2022/05/25 05:44:49;;;;;;;;;5.25;5.25;;;;;14.45;50.50;101207.19;5081961;27;45231;-57
2022/05/25 05:47:20;;;;;;;;;7.50;7.50;;;;;14.47;50.55;101215.97;5081851;27;45929;-57
2022/05/25 05:49:45;;;;;;;;;7.25;4.75;;;;;14.50;50.70;101207.94;5081664;27;46817;-58
2022/05/25 05:52:11;;;;;;;;;6.50;6.50;;;;;14.53;50.40;101201.75;5081983;28;45239;-56
2022/05/25 05:54:38;;;;;;;;;6.75;6.50;;;;;14.55;50.14;101198.16;5082038;27;45378;-56
2022/05/25 05:57:04;;;;;;;;;7.50;7.50;;;;;14.58;50.15;101200.72;5080747;28;46158;-58
2022/05/25 05:59:29;;;;;;;;;8.00;7.00;;;;;14.57;50.27;101196.31;5081233;28;45479;-57
2022/05/25 06:01:55;;;;;;;;;6.00;6.00;;;;;14.58;50.32;101179.56;5081471;28;45330;-57
2022/05/25 06:04:22;;;;;;;;;10.50;7.50;;;;;14.65;50.24;101204.09;5065161;27;45385;-57
2022/05/25 06:06:47;;;;;;;;;8.50;8.25;;;;;14.68;50.83;101211.09;5061460;28;45365;-57
2022/05/25 06:09:13;;;;;;;;;6.75;6.00;;;;;14.69;50.18;101195.22;5061060;28;47013;-57
2022/05/25 06:11:41;;;;;;;;;7.25;7.25;;;;;14.74;50.65;101205.66;5061493;28;45337;-56
2022/05/25 06:14:10;;;;;;;;;7.75;6.50;;;;;14.77;50.32;101201.16;5061060;28;45358;-58
2022/05/25 06:19:33;;;;;;;;;8.25;8.00;;;;;14.84;50.44;101214.25;5060872;28;45778;-57
2022/05/25 06:21:59;;;;;;;;;11.00;9.00;;;;;14.86;50.68;101208.00;5061047;28;46464;-57
2022/05/25 06:24:26;;;;;;;;;8.00;7.50;;;;;14.89;50.67;101218.53;5061211;28;45377;-57
2022/05/25 06:26:51;;;;;;;;;9.00;8.00;;;;;14.91;50.42;101219.34;5060974;28;45367;-57
2022/05/25 06:29:19;;;;;;;;;7.50;7.50;;;;;14.93;50.47;101222.84;5060637;28;45902;-58
2022/05/25 06:31:44;;;;;;;;;10.75;8.50;;;;;14.97;50.45;101236.88;5060988;28;46138;-57
2022/05/25 06:34:10;;;;;;;;;9.25;9.25;;;;;14.99;50.78;101234.19;5061011;28;45303;-56
2022/05/25 06:36:35;;;;;;;;;12.25;8.50;;;;;15.00;50.36;101239.44;5074453;28;45410;-57
2022/05/25 06:39:01;;;;;;;;;11.00;8.00;;;;;15.02;50.59;101247.31;5081051;27;45936;-57
2022/05/25 06:41:26;;;;;;;;;10.75;10.00;;;;;15.04;50.50;101243.75;5081129;28;45334;-56
2022/05/25 06:43:52;;;;;;;;;12.25;9.75;;;;;15.05;50.57;101242.81;5081053;27;45298;-58
2022/05/25 06:46:19;;;;;;;;;12.25;10.50;;;;;15.11;50.01;101258.56;5080879;27;45295;-58
2022/05/25 06:48:45;;;;;;;;;10.25;8.75;;;;;15.15;50.66;101258.50;5080533;27;46317;-58
2022/05/25 06:51:13;;;;;;;;;10.00;8.75;;;;;15.17;50.72;101262.84;5080781;27;45248;-57
2022/05/25 06:53:39;;;;;;;;;11.25;9.50;;;;;15.20;50.34;101268.03;5081063;27;45380;-58
2022/05/25 06:56:05;;;;;;;;;7.25;7.25;;;;;15.23;50.48;101262.69;5079409;28;45357;-57
2022/05/25 06:58:30;;;;;;;;;6.00;4.75;;;;;15.27;50.20;101268.78;5080553;28;45616;-58
2022/05/25 07:00:55;;;;;;;;;5.00;2.25;;;;;15.30;50.46;101258.09;5080774;27;45313;-57
2022/05/25 07:03:21;;;;;;;;;6.75;3.50;;;;;15.33;50.47;101265.94;5072753;28;45252;-57
2022/05/25 07:05:47;;;;;;;;;3.25;3.25;;;;;15.38;50.42;101266.72;5060411;28;45358;-58
2022/05/25 07:08:12;;;;;;;;;1.50;1.50;;;;;15.40;50.09;101274.63;5060406;28;45415;-58
2022/05/25 07:10:37;;;;;;;;;2.25;2.25;;;;;15.44;50.08;101278.91;5060466;28;45265;-57
2022/05/25 07:13:03;;;;;;;;;3.00;1.00;;;;;15.44;50.07;101273.63;5060370;28;45320;-58
2022/05/25 07:15:28;;;;;;;;;2.75;2.75;;;;;15.49;50.12;101279.66;5060386;28;45399;-57
2022/05/25 07:17:53;;;;;;;;;1.00;1.00;;;;;15.50;50.04;101277.91;5060242;28;45248;-58
2022/05/25 07:20:19;;;;;;;;;2.00;2.00;;;;;15.53;50.13;101280.47;5058805;28;45253;-57
2022/05/25 07:22:44;;;;;;;;;2.75;2.00;;;;;15.52;49.37;101279.59;5060531;28;45749;-57
2022/05/25 07:25:09;;;;;;;;;2.50;1.75;;;;;15.54;49.81;101277.75;5060132;28;45259;-58
2022/05/25 07:27:35;;;;;;;;;1.00;1.00;;;;;15.60;49.78;101293.50;5059816;28;45229;-57
2022/05/25 07:30:01;;;;;;;;;2.25;2.25;;;;;15.65;49.55;101295.19;5060017;28;45242;-57
2022/05/25 07:32:27;;;;;;;;;0.50;0.50;;;;;15.65;49.60;101292.53;5060081;28;45303;-57
2022/05/25 07:35:02;;;;;;;;;0.75;0.75;;;;;15.68;49.59;101303.03;5060164;28;45399;-57
2022/05/25 07:37:33;;;;;;;;;1.00;0.25;;;;;15.67;49.58;101303.94;5059693;28;46129;-57
2022/05/25 07:40:08;;;;;;;;;0.75;0.75;;;;;15.67;49.56;101304.81;5058314;28;45195;-57
2022/05/25 07:42:34;;;;;;;;;2.00;1.00;;;;;15.71;49.29;101305.59;5058941;28;45315;-56
2022/05/25 07:45:03;;;;;;;;;0.00;0.00;;;;;15.70;49.34;101304.72;5059786;28;45422;-57
2022/05/25 07:47:30;;;;;;;;;1.00;1.00;;;;;15.75;49.38;101296.66;5059611;28;47053;-58
2022/05/25 07:49:55;;;;;;;;;2.00;1.00;;;;;15.79;48.84;101302.75;5059586;28;45690;-58
2022/05/25 07:52:23;;;;;;;;;0.75;0.75;;;;;15.81;49.24;101296.50;5071349;28;45294;-58
2022/05/25 07:54:49;;;;;;;;;1.50;1.00;;;;;15.79;49.11;101298.31;5080070;28;45257;-58
2022/05/25 07:57:14;;;;;;;;;0.00;0.00;;;;;15.84;48.69;101309.69;5079754;28;45258;-58
2022/05/25 07:59:41;;;;;;;;;1.00;1.00;;;;;15.88;49.00;101313.97;5079960;28;45138;-57
2022/05/25 08:07:46;;;;;;;;;1.25;1.25;;;;;16.10;48.82;101310.75;5079764;28;45685;-58
2022/05/25 08:10:16;;;;;;;;;1.75;1.00;;;;;16.14;48.47;101324.78;5075311;28;45707;-58
2022/05/25 08:12:43;;;;;;;;;1.50;1.50;;;;;16.21;48.39;101324.59;5078337;28;45512;-58
2022/05/25 08:15:10;;;;;;;;;5.25;2.75;;;;;16.27;48.43;101328.81;5080013;27;45256;-57
2022/05/25 08:17:36;;;;;;;;;0.25;0.25;;;;;16.33;48.45;101326.00;5079283;27;47097;-58
2022/05/25 08:20:03;;;;;;;;;1.25;1.00;;;;;16.41;48.52;101328.44;5075034;28;45221;-57
2022/05/25 08:22:28;;;;;;;;;1.00;1.00;;;;;16.47;48.34;101324.75;5078958;28;45349;-58
2022/05/25 08:24:54;;;;;;;;;0.00;0.00;;;;;16.57;48.51;101327.06;5079757;28;45440;-58
2022/05/25 08:27:19;;;;;;;;;1.00;1.00;;;;;16.63;48.56;101320.72;5078655;27;45953;-58
2022/05/25 08:29:44;;;;;;;;;1.00;1.00;;;;;16.71;48.25;101323.97;5079767;27;45293;-58
2022/05/25 08:32:10;;;;;;;;;0.50;0.00;;;;;16.76;48.27;101323.84;5079507;28;45617;-57
2022/05/25 08:34:36;;;;;;;;;0.75;0.75;;;;;16.81;48.14;101313.09;5079634;27;45439;-58
2022/05/25 08:37:02;;;;;;;;;0.00;0.00;;;;;16.84;48.05;101318.28;5079412;27;45301;-58
2022/05/25 08:39:28;;;;;;;;;0.00;0.00;;;;;16.89;48.12;101319.00;5079543;27;45274;-58
2022/05/25 08:41:56;;;;;;;;;1.25;0.25;;;;;16.93;48.07;101318.06;5079528;28;45330;-58
2022/05/25 08:44:23;;;;;;;;;0.50;0.50;;;;;17.02;48.15;101323.06;5079294;28;45440;-58
2022/05/25 08:46:57;;;;;;;;;5.00;1.75;;;;;17.09;47.92;101325.53;5078988;27;46313;-58
2022/05/25 08:49:26;;;;;;;;;1.75;1.00;;;;;17.15;47.72;101320.03;5079310;27;45282;-58
2022/05/25 08:51:56;;;;;;;;;1.25;1.00;;;;;17.18;48.01;101331.41;5078213;28;45488;-58
2022/05/25 08:54:24;;;;;;;;;0.00;0.00;;;;;17.18;47.80;101318.13;5082198;27;45260;-57
2022/05/25 08:56:56;;;;;;;;;1.75;0.50;;;;;17.22;47.75;101317.09;5082717;27;45398;-58
2022/05/25 08:59:24;;;;;;;;;1.00;1.00;;;;;17.25;47.75;101323.25;5082333;27;45489;-58
2022/05/25 09:01:59;;;;;;;;;1.00;1.00;;;;;17.29;47.60;101312.44;5082809;27;45310;-58
2022/05/25 09:04:45;;;;;;;;;0.25;0.25;;;;;17.35;47.37;101324.69;5065501;28;45636;-58
2022/05/25 09:07:23;;;;;;;;;1.75;1.75;;;;;17.30;47.39;101322.16;5062171;28;47022;-58
2022/05/25 09:09:50;;;;;;;;;0.00;0.00;;;;;17.38;47.22;101321.91;5070205;28;45365;-58
2022/05/25 09:12:40;;;;;;;;;1.75;0.50;;;;;17.43;47.26;101335.03;5082301;27;45347;-58
2022/05/25 09:15:22;;;;;;;;;0.50;0.50;;;;;17.48;47.03;101331.31;5082463;27;45252;-58
2022/05/25 09:18:09;;;;;;;;;2.75;0.00;;;;;17.45;46.77;101342.03;5082236;27;47383;-58
2022/05/25 09:20:44;;;;;;;;;0.00;0.00;;;;;17.49;46.57;101337.50;5082256;27;45383;-58
2022/05/25 09:23:12;;;;;;;;;0.00;0.00;;;;;17.45;46.35;101339.38;5082549;27;45401;-58
2022/05/25 09:25:38;;;;;;;;;1.00;1.00;;;;;17.50;46.23;101328.59;5080643;28;45335;-58
2022/05/25 09:28:22;;;;;;;;;1.00;0.00;;;;;17.49;46.09;101341.00;5082150;27;45440;-58
2022/05/25 09:30:52;;;;;;;;;0.25;0.25;;;;;17.50;45.86;101334.78;5080815;28;45375;-58
2022/05/25 09:33:36;;;;;;;;;0.25;0.25;;;;;17.57;45.70;101339.88;5082377;27;45217;-58
2022/05/25 09:36:08;;;;;;;;;1.00;0.00;;;;;17.61;45.44;101322.91;5082184;28;46650;-58
2022/05/25 09:38:43;;;;;;;;;0.00;0.00;;;;;17.68;45.32;101322.66;5081805;27;45362;-58
2022/05/25 09:41:23;;;;;;;;;1.00;1.00;;;;;17.72;45.27;101331.38;5077613;28;45284;-58
2022/05/25 09:43:54;;;;;;;;;0.50;0.50;;;;;17.70;45.00;101317.28;5069634;28;45523;-58
2022/05/25 09:46:35;;;;;;;;;0.00;0.00;;;;;17.80;44.86;101336.44;5078498;28;45676;-58
2022/05/25 09:49:04;;;;;;;;;0.00;0.00;;;;;17.85;44.62;101340.66;5080591;28;46160;-58
2022/05/25 09:51:34;;;;;;;;;0.00;0.00;;;;;17.89;44.29;101335.25;5081833;27;45285;-58
2022/05/25 09:54:40;;;;;;;;;0.25;0.00;;;;;18.02;44.21;101328.59;5080785;28;45313;-58
2022/05/25 09:57:30;;;;;;;;;0.00;0.00;;;;;18.11;43.85;101330.94;4988535;28;45481;-58
2022/05/25 10:00:38;;;;;;;;;0.00;0.00;;;;;18.25;43.99;101340.19;5067423;28;46309;-58
2022/05/25 10:03:21;;;;;;;;;0.00;0.00;;;;;18.30;43.77;101335.56;5075172;27;45379;-58
2022/05/25 10:05:54;;;;;;;;;0.00;0.00;;;;;18.44;43.67;101332.38;5061377;28;45157;-58
2022/05/25 10:08:39;;;;;;;;;0.00;0.00;;;;;18.52;43.21;101333.81;5060088;28;45522;-58
2022/05/25 10:11:29;;;;;;;;;0.00;0.00;;;;;18.65;43.42;101336.91;5075466;28;48569;-57
2022/05/25 10:13:56;;;;;;;;;0.00;0.00;;;;;18.79;43.06;101360.31;5076783;28;45282;-57
2022/05/25 10:16:25;;;;;;;;;1.00;1.00;;;;;18.89;43.12;101354.63;5081501;27;45322;-57
2022/05/25 10:18:50;;;;;;;;;0.00;0.00;;;;;18.99;43.08;101350.69;5081495;27;45308;-57
2022/05/25 10:21:28;;;;;;;;;0.00;0.00;;;;;19.10;43.14;101334.31;5076744;28;46030;-57
2022/05/25 10:23:54;;;;;;;;;0.00;0.00;;;;;19.25;42.59;101344.31;5077607;28;45249;-58
2022/05/25 10:26:48;;;;;;;;;0.00;0.00;;;;;19.44;42.75;101339.09;5076786;28;45332;-60
2022/05/25 10:37:57;;;;;;;;;0.00;0.00;;;;;20.36;42.69;101338.69;5081433;28;45279;-58
2022/05/25 10:40:23;;;;;;;;;0.00;0.00;;;;;20.60;42.71;101347.38;5080396;27;45603;-58
2022/05/25 10:42:57;;;;;;;;;0.00;0.00;;;;;20.82;42.05;101342.84;5080992;28;45451;-58
2022/05/25 10:45:32;;;;;;;;;1.00;0.00;;;;;21.05;42.15;101339.06;5079692;28;45471;-57
2022/05/25 10:48:10;;;;;;;;;0.00;0.00;;;;;21.37;42.30;101347.28;5080900;27;45540;-58
2022/05/25 10:50:45;;;;;;;;;0.00;0.00;;;;;21.55;42.12;101340.16;5081023;27;45432;-58
2022/05/25 10:53:25;;;;;;;;;1.00;0.00;;;;;21.89;41.50;101336.63;5080757;27;46261;-58
2022/05/25 10:56:04;;;;;;;;;0.00;0.00;;;;;22.21;41.63;101342.09;5080942;27;45227;-58
2022/05/25 10:58:48;;;;;;;;;0.00;0.00;;;;;22.51;41.34;101351.25;5080850;28;45452;-58
2022/05/25 11:01:25;;;;;;;;;1.00;0.00;;;;;22.76;41.34;101340.03;5080583;28;45373;-58
2022/05/25 11:04:03;;;;;;;;;1.00;0.00;;;;;23.09;41.38;101322.97;5068322;27;46200;-58
2022/05/25 11:06:53;;;;;;;;;0.00;0.00;;;;;23.48;41.07;101337.72;5067367;28;45409;-58
2022/05/25 11:09:18;;;;;;;;;0.00;0.00;;;;;23.75;40.57;101331.66;5080782;28;45407;-58
2022/05/25 11:12:14;;;;;;;;;1.00;0.50;;;;;23.98;40.98;101324.91;5080581;28;45356;-58
2022/05/25 11:15:18;;;;;;;;;0.00;0.00;;;;;24.25;40.48;101326.84;5080835;27;45341;-58
2022/05/25 11:18:02;;;;;;;;;0.00;0.00;;;;;24.56;40.28;101324.88;5075526;28;45423;-58
2022/05/25 11:20:38;;;;;;;;;0.75;0.75;;;;;24.84;40.06;101331.16;5075297;28;45484;-58
2022/05/25 11:23:09;;;;;;;;;0.00;0.00;;;;;25.22;40.16;101341.25;5080793;28;45262;-58
2022/05/25 11:25:59;;;;;;;;;0.00;0.00;;;;;25.51;39.84;101340.25;5079948;27;46900;-58
2022/05/25 11:28:57;;;;;;;;;0.00;0.00;;;;;25.82;39.65;101333.63;5080214;27;45331;-58
2022/05/25 11:31:31;;;;;;;;;0.00;0.00;;;;;26.07;39.31;101338.19;5047757;28;45344;-58
2022/05/25 11:34:05;;;;;;;;;0.00;0.00;;;;;26.36;38.73;101334.41;5079712;28;45588;-58
2022/05/25 11:36:33;;;;;;;;;0.00;0.00;;;;;26.67;38.57;101327.63;5080318;28;46313;-58
2022/05/25 11:39:26;;;;;;;;;0.50;0.50;;;;;26.91;38.86;101341.16;5080193;28;45346;-58
2022/05/25 11:42:14;;;;;;;;;0.00;0.00;;;;;27.16;37.90;101336.66;5080327;27;45355;-58
2022/05/25 11:45:07;;;;;;;;;0.00;0.00;;;;;27.39;37.40;101340.31;5076154;28;45428;-58
2022/05/25 11:47:57;;;;;;;;;2.00;0.75;;;;;27.62;37.91;101332.28;5079988;28;45377;-58
2022/05/25 11:50:37;;;;;;;;;1.00;0.00;;;;;27.76;37.13;101344.75;5080358;28;45367;-58
2022/05/25 11:53:15;;;;;;;;;0.00;0.00;;;;;27.79;37.19;101340.94;5080097;27;45268;-58
2022/05/25 11:55:56;;;;;;;;;0.00;0.00;;;;;27.82;36.98;101335.28;5080238;27;45153;-58
2022/05/25 11:58:25;;;;;;;;;0.50;0.50;;;;;27.87;36.30;101339.38;5074927;28;47250;-58
2022/05/25 12:01:15;;;;;;;;;0.00;0.00;;;;;27.78;36.13;101339.22;5074058;28;45252;-58
2022/05/25 12:03:59;;;;;;;;;0.00;0.00;;;;;27.57;36.15;101348.84;5068343;28;45454;-58
2022/05/25 12:07:09;;;;;;;;;0.00;0.00;;;;;27.35;35.91;101337.97;5066526;28;45489;-58